Ole-arvid Nergaard — LLAY — position and weather

sailwx.info

Track history (hours):
 
Tides and Currents Weather Stations Pressure Air Temp Water Temp Dewpoint Dewpoint Depression Visibility Wind Speed Wind Dir Waves Ship Positions

Ole-arvid Nergaard

Last reported at 2014-Oct-18 16:23 UTC. Time now 2014-Oct-25 06:15 UTC.
Position N 72°33' E 019°17'.

Length 55 m; draft 7.2 m.

Type: Fishing. MMSI: 259656000.

Date/timePositionNaut miles runAvg speedWind from/ knotsBaromVisibWave heightAir tempDewpointWater temp
2014-Oct-18 16:23N 72°33' E 019°17'1011.1
2014-Oct-18 15:29N 72°23' E 019°05'1111.2
2014-Oct-18 14:32N 72°14' E 018°51'1111.1
2014-Oct-18 13:32N 72°03' E 018°36'137 6.4
2014-Oct-17 16:11N 69°46' E 019°04'5 2.5
2014-Oct-17 14:25N 69°42' E 019°05'0 0.0
2014-Oct-17 13:27N 69°42' E 019°05'2 2.8
2014-Oct-17 12:34N 69°40' E 018°59'0 0.0
2014-Oct-17 11:33N 69°40' E 018°59'0 0.0
2014-Oct-17 10:33N 69°40' E 018°59'0 0.0
2014-Oct-17 09:33N 69°40' E 018°59'0 0.0
2014-Oct-17 08:33N 69°40' E 018°59'0 0.0
2014-Oct-17 07:34N 69°40' E 018°59'0 0.0
2014-Oct-17 06:34N 69°40' E 018°59'0 0.0
2014-Oct-17 05:33N 69°40' E 018°59'0 0.0
2014-Oct-17 04:33N 69°40' E 018°59'0 0.0
2014-Oct-17 03:33N 69°40' E 018°59'0 0.0
2014-Oct-17 02:33N 69°40' E 018°59'0 0.0
2014-Oct-17 01:33N 69°40' E 018°59'0 0.0
2014-Oct-17 00:33N 69°40' E 018°59'0 0.0
2014-Oct-16 23:33N 69°40' E 018°59'0 0.0
2014-Oct-16 22:33N 69°40' E 018°59'0 0.0
2014-Oct-16 21:34N 69°40' E 018°59'0 0.0
2014-Oct-16 20:33N 69°40' E 018°59'0 0.0
2014-Oct-16 19:33N 69°40' E 018°59'0 0.0
2014-Oct-16 18:34N 69°40' E 018°59'0 0.0
2014-Oct-16 17:33N 69°40' E 018°59'0 0.0
2014-Oct-16 16:34N 69°40' E 018°59'0 0.0
2014-Oct-16 15:34N 69°40' E 018°59'0 0.0
2014-Oct-16 14:34N 69°40' E 018°59'0 0.0
2014-Oct-16 13:34N 69°40' E 018°59'0 0.0
2014-Oct-16 12:34N 69°40' E 018°59'0 0.0
2014-Oct-16 11:34N 69°40' E 018°59'0 0.0
2014-Oct-16 10:34N 69°40' E 018°59'0 0.0
2014-Oct-16 09:34N 69°40' E 018°59'0 0.0
2014-Oct-16 08:33N 69°40' E 018°59'0 0.0
2014-Oct-16 07:33N 69°40' E 018°59'0 0.0
2014-Oct-16 06:34N 69°40' E 018°59'0 0.0
2014-Oct-16 05:34N 69°40' E 018°59'0 0.0
2014-Oct-16 04:34N 69°40' E 018°59'0 0.0
2014-Oct-16 03:33N 69°40' E 018°59'0 0.0
2014-Oct-16 02:34N 69°40' E 018°59'0 0.0
2014-Oct-16 01:34N 69°40' E 018°59'0 0.0
2014-Oct-16 00:33N 69°40' E 018°59'0 0.0
2014-Oct-15 23:34N 69°40' E 018°59'0 0.0
2014-Oct-15 22:33N 69°40' E 018°59'0 0.0
2014-Oct-15 21:34N 69°40' E 018°59'3 3.2
2014-Oct-15 20:34N 69°37' E 018°56'  
Track history (hours):
 
Tides and Currents Weather Stations Pressure Air Temp Water Temp Dewpoint Dewpoint Depression Visibility Wind Speed Wind Dir Waves Ship Positions

Ole-arvid Nergaard

Last reported at 2014-Oct-18 16:23 UTC. Time now 2014-Oct-25 06:15 UTC.
Position N 72°33' E 019°17'.

Length 55 m; draft 7.2 m.

Type: Fishing. MMSI: 259656000.

Date/timePositionNaut miles runAvg speedWind from/ knotsBaromVisibWave heightAir tempDewpointWater temp
2014-Oct-18 16:23N 72°33' E 019°17'1011.1
2014-Oct-18 15:29N 72°23' E 019°05'1111.2
2014-Oct-18 14:32N 72°14' E 018°51'1111.1
2014-Oct-18 13:32N 72°03' E 018°36'137 6.4
2014-Oct-17 16:11N 69°46' E 019°04'5 2.5
2014-Oct-17 14:25N 69°42' E 019°05'0 0.0
2014-Oct-17 13:27N 69°42' E 019°05'2 2.8
2014-Oct-17 12:34N 69°40' E 018°59'0 0.0
2014-Oct-17 11:33N 69°40' E 018°59'0 0.0
2014-Oct-17 10:33N 69°40' E 018°59'0 0.0
2014-Oct-17 09:33N 69°40' E 018°59'0 0.0
2014-Oct-17 08:33N 69°40' E 018°59'0 0.0
2014-Oct-17 07:34N 69°40' E 018°59'0 0.0
2014-Oct-17 06:34N 69°40' E 018°59'0 0.0
2014-Oct-17 05:33N 69°40' E 018°59'0 0.0
2014-Oct-17 04:33N 69°40' E 018°59'0 0.0
2014-Oct-17 03:33N 69°40' E 018°59'0 0.0
2014-Oct-17 02:33N 69°40' E 018°59'0 0.0
2014-Oct-17 01:33N 69°40' E 018°59'0 0.0
2014-Oct-17 00:33N 69°40' E 018°59'0 0.0
2014-Oct-16 23:33N 69°40' E 018°59'0 0.0
2014-Oct-16 22:33N 69°40' E 018°59'0 0.0
2014-Oct-16 21:34N 69°40' E 018°59'0 0.0
2014-Oct-16 20:33N 69°40' E 018°59'0 0.0
2014-Oct-16 19:33N 69°40' E 018°59'0 0.0
2014-Oct-16 18:34N 69°40' E 018°59'0 0.0
2014-Oct-16 17:33N 69°40' E 018°59'0 0.0
2014-Oct-16 16:34N 69°40' E 018°59'0 0.0
2014-Oct-16 15:34N 69°40' E 018°59'0 0.0
2014-Oct-16 14:34N 69°40' E 018°59'0 0.0
2014-Oct-16 13:34N 69°40' E 018°59'0 0.0
2014-Oct-16 12:34N 69°40' E 018°59'0 0.0
2014-Oct-16 11:34N 69°40' E 018°59'0 0.0
2014-Oct-16 10:34N 69°40' E 018°59'0 0.0
2014-Oct-16 09:34N 69°40' E 018°59'0 0.0
2014-Oct-16 08:33N 69°40' E 018°59'0 0.0
2014-Oct-16 07:33N 69°40' E 018°59'0 0.0
2014-Oct-16 06:34N 69°40' E 018°59'0 0.0
2014-Oct-16 05:34N 69°40' E 018°59'0 0.0
2014-Oct-16 04:34N 69°40' E 018°59'0 0.0
2014-Oct-16 03:33N 69°40' E 018°59'0 0.0
2014-Oct-16 02:34N 69°40' E 018°59'0 0.0
2014-Oct-16 01:34N 69°40' E 018°59'0 0.0
2014-Oct-16 00:33N 69°40' E 018°59'0 0.0
2014-Oct-15 23:34N 69°40' E 018°59'0 0.0
2014-Oct-15 22:33N 69°40' E 018°59'0 0.0
2014-Oct-15 21:34N 69°40' E 018°59'3 3.2
2014-Oct-15 20:34N 69°37' E 018°56'  

Dump ship's entire track history